Aviation Digital Data Service (ADDS)

Output produced by METARs form (0701 UTC 03 September 2014)
found at http://www.aviationweather.gov/adds/metars/
 
KDOV 030658Z AUTO 23004KT 10SM SCT070 SCT120 BKN150 BKN180 24/24 A2990 RMK AO2 RAE0615 SLP128 P0000 T02370237
TAF AMD KDOV 0306/0406 VRB06KT 9999 FEW050 BKN090 QNH2980INS 
     TEMPO 0306/0307 01012G18KT 8000 -TSRA BKN050CB OVC090 
     BECMG 0314/0315 VRB06KT 9999 FEW090 QNH3000INS TX31/0318Z TN21/0310Z AMD 030633